sensor_id;sensor_type;location;lat;lon;timestamp;temperature;humidity
23114;DHT22;11726;50.122;8.832;2022-11-20T00:01:04;3.00;99.90
23114;DHT22;11726;50.122;8.832;2022-11-20T00:03:31;3.00;99.90
23114;DHT22;11726;50.122;8.832;2022-11-20T00:06:01;3.00;99.90
23114;DHT22;11726;50.122;8.832;2022-11-20T00:08:28;3.00;99.90
23114;DHT22;11726;50.122;8.832;2022-11-20T00:10:54;3.00;99.90
23114;DHT22;11726;50.122;8.832;2022-11-20T00:13:21;3.00;99.90
23114;DHT22;11726;50.122;8.832;2022-11-20T00:15:48;2.90;99.90
23114;DHT22;11726;50.122;8.832;2022-11-20T00:18:14;2.90;99.90
23114;DHT22;11726;50.122;8.832;2022-11-20T00:20:41;3.00;99.90
23114;DHT22;11726;50.122;8.832;2022-11-20T00:23:07;3.00;99.90
23114;DHT22;11726;50.122;8.832;2022-11-20T00:25:34;3.00;99.90
23114;DHT22;11726;50.122;8.832;2022-11-20T00:28:01;2.90;99.90
23114;DHT22;11726;50.122;8.832;2022-11-20T00:30:28;2.90;99.90
23114;DHT22;11726;50.122;8.832;2022-11-20T00:32:56;2.80;99.90
23114;DHT22;11726;50.122;8.832;2022-11-20T00:35:22;2.90;99.90
23114;DHT22;11726;50.122;8.832;2022-11-20T00:37:49;2.90;99.90
23114;DHT22;11726;50.122;8.832;2022-11-20T00:40:15;2.80;99.90
23114;DHT22;11726;50.122;8.832;2022-11-20T00:42:42;2.80;99.90
23114;DHT22;11726;50.122;8.832;2022-11-20T00:45:08;2.90;99.90
23114;DHT22;11726;50.122;8.832;2022-11-20T00:47:35;2.90;99.90
23114;DHT22;11726;50.122;8.832;2022-11-20T00:50:02;2.90;99.90
23114;DHT22;11726;50.122;8.832;2022-11-20T00:52:28;2.90;99.90
23114;DHT22;11726;50.122;8.832;2022-11-20T00:54:55;3.00;99.90
23114;DHT22;11726;50.122;8.832;2022-11-20T00:57:23;3.00;99.90
23114;DHT22;11726;50.122;8.832;2022-11-20T00:59:49;3.00;99.90
23114;DHT22;11726;50.122;8.832;2022-11-20T01:02:17;3.00;99.90
23114;DHT22;11726;50.122;8.832;2022-11-20T01:04:44;2.90;99.90
23114;DHT22;11726;50.122;8.832;2022-11-20T01:07:10;2.90;99.90
23114;DHT22;11726;50.122;8.832;2022-11-20T01:09:37;3.00;99.90
23114;DHT22;11726;50.122;8.832;2022-11-20T01:12:04;2.90;99.90
23114;DHT22;11726;50.122;8.832;2022-11-20T01:14:31;2.90;99.90
23114;DHT22;11726;50.122;8.832;2022-11-20T01:16:58;2.90;99.90
23114;DHT22;11726;50.122;8.832;2022-11-20T01:19:24;2.90;99.90
23114;DHT22;11726;50.122;8.832;2022-11-20T01:21:53;2.90;99.90
23114;DHT22;11726;50.122;8.832;2022-11-20T01:24:20;2.90;99.90
23114;DHT22;11726;50.122;8.832;2022-11-20T01:26:47;2.90;99.90
23114;DHT22;11726;50.122;8.832;2022-11-20T01:29:19;3.00;99.90
23114;DHT22;11726;50.122;8.832;2022-11-20T01:31:46;2.80;99.90
23114;DHT22;11726;50.122;8.832;2022-11-20T01:34:14;2.90;99.90
23114;DHT22;11726;50.122;8.832;2022-11-20T01:36:42;2.80;99.90
23114;DHT22;11726;50.122;8.832;2022-11-20T01:39:13;2.80;99.90
23114;DHT22;11726;50.122;8.832;2022-11-20T01:41:40;2.80;99.90
23114;DHT22;11726;50.122;8.832;2022-11-20T01:47:50;2.80;99.90
23114;DHT22;11726;50.122;8.832;2022-11-20T01:50:22;2.80;99.90
23114;DHT22;11726;50.122;8.832;2022-11-20T01:52:51;2.70;99.90
23114;DHT22;11726;50.122;8.832;2022-11-20T01:55:19;2.70;99.90
23114;DHT22;11726;50.122;8.832;2022-11-20T01:57:46;2.70;99.90
23114;DHT22;11726;50.122;8.832;2022-11-20T02:00:15;2.80;99.90
23114;DHT22;11726;50.122;8.832;2022-11-20T02:02:44;2.70;99.90
23114;DHT22;11726;50.122;8.832;2022-11-20T02:05:34;2.70;99.90
23114;DHT22;11726;50.122;8.832;2022-11-20T02:07:59;2.70;99.90
23114;DHT22;11726;50.122;8.832;2022-11-20T02:10:26;2.80;99.90
23114;DHT22;11726;50.122;8.832;2022-11-20T02:12:53;2.80;99.90
23114;DHT22;11726;50.122;8.832;2022-11-20T02:15:39;2.80;99.90
23114;DHT22;11726;50.122;8.832;2022-11-20T02:18:06;2.70;99.90
23114;DHT22;11726;50.122;8.832;2022-11-20T02:20:33;2.70;99.90
23114;DHT22;11726;50.122;8.832;2022-11-20T02:23:03;2.80;99.90
23114;DHT22;11726;50.122;8.832;2022-11-20T02:25:31;2.80;99.90
23114;DHT22;11726;50.122;8.832;2022-11-20T02:27:58;2.80;99.90
23114;DHT22;11726;50.122;8.832;2022-11-20T02:30:25;2.70;99.90
23114;DHT22;11726;50.122;8.832;2022-11-20T02:32:52;2.70;99.90
23114;DHT22;11726;50.122;8.832;2022-11-20T02:37:46;2.60;99.90
23114;DHT22;11726;50.122;8.832;2022-11-20T02:40:14;2.70;99.90
23114;DHT22;11726;50.122;8.832;2022-11-20T02:42:41;2.80;99.90
23114;DHT22;11726;50.122;8.832;2022-11-20T02:45:07;2.80;99.90
23114;DHT22;11726;50.122;8.832;2022-11-20T02:47:34;2.70;99.90
23114;DHT22;11726;50.122;8.832;2022-11-20T02:50:01;2.70;99.90
23114;DHT22;11726;50.122;8.832;2022-11-20T02:52:27;2.70;99.90
23114;DHT22;11726;50.122;8.832;2022-11-20T02:54:54;2.80;99.90
23114;DHT22;11726;50.122;8.832;2022-11-20T02:57:20;2.70;99.90
23114;DHT22;11726;50.122;8.832;2022-11-20T02:59:47;2.70;99.90
23114;DHT22;11726;50.122;8.832;2022-11-20T03:02:13;2.70;99.90
23114;DHT22;11726;50.122;8.832;2022-11-20T03:04:40;2.70;99.90
23114;DHT22;11726;50.122;8.832;2022-11-20T03:07:07;2.80;99.90
23114;DHT22;11726;50.122;8.832;2022-11-20T03:09:34;2.70;99.90
23114;DHT22;11726;50.122;8.832;2022-11-20T03:12:00;2.60;99.90
23114;DHT22;11726;50.122;8.832;2022-11-20T03:14:27;2.40;99.90
23114;DHT22;11726;50.122;8.832;2022-11-20T03:16:53;2.40;99.90
23114;DHT22;11726;50.122;8.832;2022-11-20T03:19:21;2.20;99.90
23114;DHT22;11726;50.122;8.832;2022-11-20T03:21:48;2.20;99.90
23114;DHT22;11726;50.122;8.832;2022-11-20T03:24:15;2.10;99.90
23114;DHT22;11726;50.122;8.832;2022-11-20T03:26:41;2.10;99.90
23114;DHT22;11726;50.122;8.832;2022-11-20T03:29:08;2.10;99.90
23114;DHT22;11726;50.122;8.832;2022-11-20T03:31:35;2.20;99.90
23114;DHT22;11726;50.122;8.832;2022-11-20T03:34:03;2.20;99.90
23114;DHT22;11726;50.122;8.832;2022-11-20T03:36:30;2.20;99.90
23114;DHT22;11726;50.122;8.832;2022-11-20T03:38:57;2.30;99.90
23114;DHT22;11726;50.122;8.832;2022-11-20T03:41:27;2.30;99.90
23114;DHT22;11726;50.122;8.832;2022-11-20T03:43:58;2.30;99.90
23114;DHT22;11726;50.122;8.832;2022-11-20T03:46:25;2.20;99.90
23114;DHT22;11726;50.122;8.832;2022-11-20T03:48:52;2.20;99.90
23114;DHT22;11726;50.122;8.832;2022-11-20T03:51:20;2.20;99.90
23114;DHT22;11726;50.122;8.832;2022-11-20T03:53:48;2.20;99.90
23114;DHT22;11726;50.122;8.832;2022-11-20T03:56:15;2.20;99.90
23114;DHT22;11726;50.122;8.832;2022-11-20T03:58:43;2.20;99.90
23114;DHT22;11726;50.122;8.832;2022-11-20T04:03:36;2.10;99.90
23114;DHT22;11726;50.122;8.832;2022-11-20T04:06:07;2.10;99.90
23114;DHT22;11726;50.122;8.832;2022-11-20T04:08:34;2.10;99.90
23114;DHT22;11726;50.122;8.832;2022-11-20T04:11:08;2.10;99.90
23114;DHT22;11726;50.122;8.832;2022-11-20T04:13:34;2.10;99.90
23114;DHT22;11726;50.122;8.832;2022-11-20T04:16:01;2.20;99.90
23114;DHT22;11726;50.122;8.832;2022-11-20T04:18:27;2.20;99.90
23114;DHT22;11726;50.122;8.832;2022-11-20T04:20:55;2.20;99.90
23114;DHT22;11726;50.122;8.832;2022-11-20T04:23:22;2.30;99.90
23114;DHT22;11726;50.122;8.832;2022-11-20T04:25:54;2.30;99.90
23114;DHT22;11726;50.122;8.832;2022-11-20T04:28:20;2.30;99.90
23114;DHT22;11726;50.122;8.832;2022-11-20T04:30:47;2.40;99.90
23114;DHT22;11726;50.122;8.832;2022-11-20T04:33:14;2.40;99.90
23114;DHT22;11726;50.122;8.832;2022-11-20T04:35:40;2.30;99.90
23114;DHT22;11726;50.122;8.832;2022-11-20T04:38:07;2.30;99.90
23114;DHT22;11726;50.122;8.832;2022-11-20T04:40:33;2.30;99.90
23114;DHT22;11726;50.122;8.832;2022-11-20T04:43:00;2.30;99.90
23114;DHT22;11726;50.122;8.832;2022-11-20T04:45:26;2.20;99.90
23114;DHT22;11726;50.122;8.832;2022-11-20T04:47:53;2.20;99.90
23114;DHT22;11726;50.122;8.832;2022-11-20T04:50:19;2.30;99.90
23114;DHT22;11726;50.122;8.832;2022-11-20T04:52:46;2.40;99.90
23114;DHT22;11726;50.122;8.832;2022-11-20T04:55:12;2.40;99.90
23114;DHT22;11726;50.122;8.832;2022-11-20T04:57:39;2.30;99.90
23114;DHT22;11726;50.122;8.832;2022-11-20T05:00:06;2.30;99.90
23114;DHT22;11726;50.122;8.832;2022-11-20T05:02:36;2.30;99.90
23114;DHT22;11726;50.122;8.832;2022-11-20T05:05:02;2.30;99.90
23114;DHT22;11726;50.122;8.832;2022-11-20T05:07:29;2.20;99.90
23114;DHT22;11726;50.122;8.832;2022-11-20T05:09:55;2.30;99.90
23114;DHT22;11726;50.122;8.832;2022-11-20T05:12:22;2.40;99.90
23114;DHT22;11726;50.122;8.832;2022-11-20T05:14:48;2.40;99.90
23114;DHT22;11726;50.122;8.832;2022-11-20T05:17:15;2.40;99.90
23114;DHT22;11726;50.122;8.832;2022-11-20T05:19:42;2.40;99.90
23114;DHT22;11726;50.122;8.832;2022-11-20T05:22:08;2.40;99.90
23114;DHT22;11726;50.122;8.832;2022-11-20T05:24:35;2.40;99.90
23114;DHT22;11726;50.122;8.832;2022-11-20T05:27:01;2.30;99.90
23114;DHT22;11726;50.122;8.832;2022-11-20T05:29:28;2.30;99.90
23114;DHT22;11726;50.122;8.832;2022-11-20T05:31:55;2.30;99.90
23114;DHT22;11726;50.122;8.832;2022-11-20T05:34:21;2.30;99.90
23114;DHT22;11726;50.122;8.832;2022-11-20T05:36:48;2.40;99.90
23114;DHT22;11726;50.122;8.832;2022-11-20T05:39:14;2.40;99.90
23114;DHT22;11726;50.122;8.832;2022-11-20T05:41:41;2.40;99.90
23114;DHT22;11726;50.122;8.832;2022-11-20T05:44:09;2.40;99.90
23114;DHT22;11726;50.122;8.832;2022-11-20T05:46:38;2.40;99.90
23114;DHT22;11726;50.122;8.832;2022-11-20T05:49:04;2.40;99.90
23114;DHT22;11726;50.122;8.832;2022-11-20T05:51:31;2.40;99.90
23114;DHT22;11726;50.122;8.832;2022-11-20T05:53:57;2.30;99.90
23114;DHT22;11726;50.122;8.832;2022-11-20T05:56:24;2.40;99.90
23114;DHT22;11726;50.122;8.832;2022-11-20T05:58:51;2.30;99.90
23114;DHT22;11726;50.122;8.832;2022-11-20T06:01:22;2.30;99.90
23114;DHT22;11726;50.122;8.832;2022-11-20T06:03:50;2.30;99.90
23114;DHT22;11726;50.122;8.832;2022-11-20T06:06:18;2.20;99.90
23114;DHT22;11726;50.122;8.832;2022-11-20T06:08:44;2.30;99.90
23114;DHT22;11726;50.122;8.832;2022-11-20T06:11:11;2.20;99.90
23114;DHT22;11726;50.122;8.832;2022-11-20T06:13:39;2.20;99.90
23114;DHT22;11726;50.122;8.832;2022-11-20T06:16:08;2.20;99.90
23114;DHT22;11726;50.122;8.832;2022-11-20T06:18:36;2.40;99.90
23114;DHT22;11726;50.122;8.832;2022-11-20T06:21:07;2.30;99.90
23114;DHT22;11726;50.122;8.832;2022-11-20T06:23:34;2.30;99.90
23114;DHT22;11726;50.122;8.832;2022-11-20T06:26:02;2.40;99.90
23114;DHT22;11726;50.122;8.832;2022-11-20T06:28:29;2.30;99.90
23114;DHT22;11726;50.122;8.832;2022-11-20T06:30:55;2.40;99.90
23114;DHT22;11726;50.122;8.832;2022-11-20T06:33:22;2.40;99.90
23114;DHT22;11726;50.122;8.832;2022-11-20T06:35:49;2.40;99.90
23114;DHT22;11726;50.122;8.832;2022-11-20T06:38:23;2.40;99.90
23114;DHT22;11726;50.122;8.832;2022-11-20T06:40:49;2.30;99.90
23114;DHT22;11726;50.122;8.832;2022-11-20T06:43:16;2.20;99.90
23114;DHT22;11726;50.122;8.832;2022-11-20T06:45:42;2.20;99.90
23114;DHT22;11726;50.122;8.832;2022-11-20T06:48:09;2.30;99.90
23114;DHT22;11726;50.122;8.832;2022-11-20T06:50:36;2.30;99.90
23114;DHT22;11726;50.122;8.832;2022-11-20T06:53:03;2.30;99.90
23114;DHT22;11726;50.122;8.832;2022-11-20T06:55:31;2.40;99.90
23114;DHT22;11726;50.122;8.832;2022-11-20T06:57:58;2.40;99.90
23114;DHT22;11726;50.122;8.832;2022-11-20T07:00:24;2.30;99.90
23114;DHT22;11726;50.122;8.832;2022-11-20T07:02:55;2.40;99.90
23114;DHT22;11726;50.122;8.832;2022-11-20T07:05:21;2.30;99.90
23114;DHT22;11726;50.122;8.832;2022-11-20T07:07:48;2.40;99.90
23114;DHT22;11726;50.122;8.832;2022-11-20T07:10:14;2.40;99.90
23114;DHT22;11726;50.122;8.832;2022-11-20T07:12:41;2.50;99.90
23114;DHT22;11726;50.122;8.832;2022-11-20T07:15:07;2.50;99.90
23114;DHT22;11726;50.122;8.832;2022-11-20T07:17:34;2.40;99.90
23114;DHT22;11726;50.122;8.832;2022-11-20T07:20:01;2.50;99.90
23114;DHT22;11726;50.122;8.832;2022-11-20T07:22:27;2.50;99.90
23114;DHT22;11726;50.122;8.832;2022-11-20T07:24:55;2.50;99.90
23114;DHT22;11726;50.122;8.832;2022-11-20T07:27:21;2.50;99.90
23114;DHT22;11726;50.122;8.832;2022-11-20T07:29:48;2.60;99.90
23114;DHT22;11726;50.122;8.832;2022-11-20T07:32:14;2.60;99.90
23114;DHT22;11726;50.122;8.832;2022-11-20T07:34:41;2.70;99.90
23114;DHT22;11726;50.122;8.832;2022-11-20T07:37:08;2.70;99.90
23114;DHT22;11726;50.122;8.832;2022-11-20T07:39:36;2.70;99.90
23114;DHT22;11726;50.122;8.832;2022-11-20T07:42:02;2.70;99.90
23114;DHT22;11726;50.122;8.832;2022-11-20T07:44:29;2.60;99.90
23114;DHT22;11726;50.122;8.832;2022-11-20T07:46:56;2.70;99.90
23114;DHT22;11726;50.122;8.832;2022-11-20T07:49:22;2.70;99.90
23114;DHT22;11726;50.122;8.832;2022-11-20T07:51:50;2.60;99.90
23114;DHT22;11726;50.122;8.832;2022-11-20T07:54:17;2.60;99.90
23114;DHT22;11726;50.122;8.832;2022-11-20T07:56:44;2.60;99.90
23114;DHT22;11726;50.122;8.832;2022-11-20T07:59:10;2.70;99.90
23114;DHT22;11726;50.122;8.832;2022-11-20T08:01:38;2.60;99.90
23114;DHT22;11726;50.122;8.832;2022-11-20T08:04:05;2.60;99.90
23114;DHT22;11726;50.122;8.832;2022-11-20T08:06:32;2.70;99.90
23114;DHT22;11726;50.122;8.832;2022-11-20T08:08:58;2.70;99.90
23114;DHT22;11726;50.122;8.832;2022-11-20T08:11:25;2.70;99.90
23114;DHT22;11726;50.122;8.832;2022-11-20T08:14:11;2.60;99.90
23114;DHT22;11726;50.122;8.832;2022-11-20T08:16:44;2.70;99.90
23114;DHT22;11726;50.122;8.832;2022-11-20T08:19:11;2.80;99.90
23114;DHT22;11726;50.122;8.832;2022-11-20T08:21:38;2.90;99.90
23114;DHT22;11726;50.122;8.832;2022-11-20T08:24:05;2.80;99.90
23114;DHT22;11726;50.122;8.832;2022-11-20T08:26:33;2.80;99.90
23114;DHT22;11726;50.122;8.832;2022-11-20T08:29:00;2.80;99.90
23114;DHT22;11726;50.122;8.832;2022-11-20T08:31:27;3.00;99.90
23114;DHT22;11726;50.122;8.832;2022-11-20T08:34:02;3.00;99.90
23114;DHT22;11726;50.122;8.832;2022-11-20T08:36:34;2.90;99.90
23114;DHT22;11726;50.122;8.832;2022-11-20T08:39:02;2.90;99.90
23114;DHT22;11726;50.122;8.832;2022-11-20T08:41:29;3.20;99.90
23114;DHT22;11726;50.122;8.832;2022-11-20T08:44:00;3.10;99.90
23114;DHT22;11726;50.122;8.832;2022-11-20T08:46:31;3.10;99.90
23114;DHT22;11726;50.122;8.832;2022-11-20T08:48:59;3.00;99.90
23114;DHT22;11726;50.122;8.832;2022-11-20T08:51:26;3.00;99.90
23114;DHT22;11726;50.122;8.832;2022-11-20T08:53:55;3.00;99.90
23114;DHT22;11726;50.122;8.832;2022-11-20T08:56:22;3.00;99.90
23114;DHT22;11726;50.122;8.832;2022-11-20T08:58:49;3.00;99.90
23114;DHT22;11726;50.122;8.832;2022-11-20T09:01:36;3.10;99.90
23114;DHT22;11726;50.122;8.832;2022-11-20T09:04:03;3.20;99.90
23114;DHT22;11726;50.122;8.832;2022-11-20T09:06:31;3.20;99.90
23114;DHT22;11726;50.122;8.832;2022-11-20T09:08:57;3.20;99.90
23114;DHT22;11726;50.122;8.832;2022-11-20T09:11:30;3.30;99.90
23114;DHT22;11726;50.122;8.832;2022-11-20T09:13:57;3.30;99.90
23114;DHT22;11726;50.122;8.832;2022-11-20T09:16:24;3.30;99.90
23114;DHT22;11726;50.122;8.832;2022-11-20T09:18:50;3.50;99.90
23114;DHT22;11726;50.122;8.832;2022-11-20T09:21:37;3.50;99.90
23114;DHT22;11726;50.122;8.832;2022-11-20T09:24:04;3.60;99.90
23114;DHT22;11726;50.122;8.832;2022-11-20T09:26:31;3.70;99.90
23114;DHT22;11726;50.122;8.832;2022-11-20T09:28:58;3.70;99.90
23114;DHT22;11726;50.122;8.832;2022-11-20T09:31:26;3.60;99.90
23114;DHT22;11726;50.122;8.832;2022-11-20T09:33:52;3.60;99.90
23114;DHT22;11726;50.122;8.832;2022-11-20T09:36:19;3.70;99.90
23114;DHT22;11726;50.122;8.832;2022-11-20T09:38:46;3.80;99.90
23114;DHT22;11726;50.122;8.832;2022-11-20T09:43:49;3.80;99.90
23114;DHT22;11726;50.122;8.832;2022-11-20T09:51:46;3.90;99.90
23114;DHT22;11726;50.122;8.832;2022-11-20T09:54:16;4.00;99.90
23114;DHT22;11726;50.122;8.832;2022-11-20T09:56:53;4.20;99.90
23114;DHT22;11726;50.122;8.832;2022-11-20T09:59:38;4.20;99.90
23114;DHT22;11726;50.122;8.832;2022-11-20T10:02:16;4.30;99.90
23114;DHT22;11726;50.122;8.832;2022-11-20T10:04:44;4.30;99.90
23114;DHT22;11726;50.122;8.832;2022-11-20T10:07:27;4.40;99.90
23114;DHT22;11726;50.122;8.832;2022-11-20T10:09:58;4.30;99.90
23114;DHT22;11726;50.122;8.832;2022-11-20T10:12:47;4.30;99.90
23114;DHT22;11726;50.122;8.832;2022-11-20T10:17:54;4.50;99.90
23114;DHT22;11726;50.122;8.832;2022-11-20T10:23:23;4.70;99.90
23114;DHT22;11726;50.122;8.832;2022-11-20T10:26:02;4.50;99.90
23114;DHT22;11726;50.122;8.832;2022-11-20T10:28:42;4.70;99.90
23114;DHT22;11726;50.122;8.832;2022-11-20T10:31:29;4.60;99.90
23114;DHT22;11726;50.122;8.832;2022-11-20T10:33:59;4.50;99.90
23114;DHT22;11726;50.122;8.832;2022-11-20T10:37:00;4.50;99.90
23114;DHT22;11726;50.122;8.832;2022-11-20T10:39:45;4.60;99.90
23114;DHT22;11726;50.122;8.832;2022-11-20T10:42:16;4.60;99.90
23114;DHT22;11726;50.122;8.832;2022-11-20T10:44:47;4.70;99.90
23114;DHT22;11726;50.122;8.832;2022-11-20T10:47:32;4.80;99.90
23114;DHT22;11726;50.122;8.832;2022-11-20T10:50:03;4.90;99.90
23114;DHT22;11726;50.122;8.832;2022-11-20T10:52:39;4.70;99.90
23114;DHT22;11726;50.122;8.832;2022-11-20T10:57:45;4.70;99.90
23114;DHT22;11726;50.122;8.832;2022-11-20T11:00:16;4.80;99.90
23114;DHT22;11726;50.122;8.832;2022-11-20T11:02:50;4.80;99.90
23114;DHT22;11726;50.122;8.832;2022-11-20T11:05:22;4.80;99.90
23114;DHT22;11726;50.122;8.832;2022-11-20T11:07:53;4.90;99.90
23114;DHT22;11726;50.122;8.832;2022-11-20T11:12:57;5.00;99.90
23114;DHT22;11726;50.122;8.832;2022-11-20T11:15:28;4.90;99.90
23114;DHT22;11726;50.122;8.832;2022-11-20T11:17:55;4.80;99.90
23114;DHT22;11726;50.122;8.832;2022-11-20T11:20:22;4.90;99.90
23114;DHT22;11726;50.122;8.832;2022-11-20T11:22:50;5.00;99.90
23114;DHT22;11726;50.122;8.832;2022-11-20T11:27:47;5.00;99.90
23114;DHT22;11726;50.122;8.832;2022-11-20T11:30:16;4.90;99.90
23114;DHT22;11726;50.122;8.832;2022-11-20T11:32:43;4.80;99.90
23114;DHT22;11726;50.122;8.832;2022-11-20T11:35:23;4.80;99.90
23114;DHT22;11726;50.122;8.832;2022-11-20T11:37:50;4.90;99.90
23114;DHT22;11726;50.122;8.832;2022-11-20T11:40:18;4.90;99.90
23114;DHT22;11726;50.122;8.832;2022-11-20T11:42:54;4.90;99.90
23114;DHT22;11726;50.122;8.832;2022-11-20T11:45:22;4.90;99.90
23114;DHT22;11726;50.122;8.832;2022-11-20T11:47:49;5.00;99.90
23114;DHT22;11726;50.122;8.832;2022-11-20T11:50:19;5.00;99.90
23114;DHT22;11726;50.122;8.832;2022-11-20T11:58:08;5.20;99.90
23114;DHT22;11726;50.122;8.832;2022-11-20T12:00:36;5.30;99.90
23114;DHT22;11726;50.122;8.832;2022-11-20T12:03:05;5.30;99.90
23114;DHT22;11726;50.122;8.832;2022-11-20T12:05:49;5.30;99.90
23114;DHT22;11726;50.122;8.832;2022-11-20T12:08:23;5.50;99.90
23114;DHT22;11726;50.122;8.832;2022-11-20T12:10:57;5.50;99.90
23114;DHT22;11726;50.122;8.832;2022-11-20T12:13:37;5.50;99.90
23114;DHT22;11726;50.122;8.832;2022-11-20T12:16:10;5.60;99.90
23114;DHT22;11726;50.122;8.832;2022-11-20T12:18:38;5.70;99.90
23114;DHT22;11726;50.122;8.832;2022-11-20T12:21:09;5.80;99.90
23114;DHT22;11726;50.122;8.832;2022-11-20T12:23:44;6.30;99.90
23114;DHT22;11726;50.122;8.832;2022-11-20T12:31:50;6.10;99.90
23114;DHT22;11726;50.122;8.832;2022-11-20T12:34:21;5.80;99.90
23114;DHT22;11726;50.122;8.832;2022-11-20T12:36:53;5.70;99.90
23114;DHT22;11726;50.122;8.832;2022-11-20T12:39:24;5.60;99.90
23114;DHT22;11726;50.122;8.832;2022-11-20T12:42:07;5.50;99.90
23114;DHT22;11726;50.122;8.832;2022-11-20T12:58:12;5.20;99.90
23114;DHT22;11726;50.122;8.832;2022-11-20T13:00:47;5.20;99.90
23114;DHT22;11726;50.122;8.832;2022-11-20T13:08:27;5.10;99.90
23114;DHT22;11726;50.122;8.832;2022-11-20T13:16:02;5.20;99.90
23114;DHT22;11726;50.122;8.832;2022-11-20T13:18:33;5.20;99.90
23114;DHT22;11726;50.122;8.832;2022-11-20T13:21:12;5.20;99.90
23114;DHT22;11726;50.122;8.832;2022-11-20T13:23:39;5.20;99.90
23114;DHT22;11726;50.122;8.832;2022-11-20T13:26:13;5.10;99.90
23114;DHT22;11726;50.122;8.832;2022-11-20T13:28:41;5.10;99.90
23114;DHT22;11726;50.122;8.832;2022-11-20T13:31:09;5.10;99.90
23114;DHT22;11726;50.122;8.832;2022-11-20T13:33:36;5.10;99.90
23114;DHT22;11726;50.122;8.832;2022-11-20T13:36:19;5.20;99.90
23114;DHT22;11726;50.122;8.832;2022-11-20T13:38:47;5.20;99.90
23114;DHT22;11726;50.122;8.832;2022-11-20T13:41:27;5.20;99.90
23114;DHT22;11726;50.122;8.832;2022-11-20T13:43:59;5.20;99.90
23114;DHT22;11726;50.122;8.832;2022-11-20T13:46:35;5.20;99.90
23114;DHT22;11726;50.122;8.832;2022-11-20T13:49:06;5.20;99.90
23114;DHT22;11726;50.122;8.832;2022-11-20T13:51:39;5.20;99.90
23114;DHT22;11726;50.122;8.832;2022-11-20T13:54:14;5.30;99.90
23114;DHT22;11726;50.122;8.832;2022-11-20T13:56:59;5.30;99.90
23114;DHT22;11726;50.122;8.832;2022-11-20T13:59:51;5.40;99.90
23114;DHT22;11726;50.122;8.832;2022-11-20T14:02:19;5.40;99.90
23114;DHT22;11726;50.122;8.832;2022-11-20T14:04:48;5.50;99.90
23114;DHT22;11726;50.122;8.832;2022-11-20T14:07:16;5.40;99.90
23114;DHT22;11726;50.122;8.832;2022-11-20T14:09:51;5.40;99.90
23114;DHT22;11726;50.122;8.832;2022-11-20T14:12:49;5.40;99.90
23114;DHT22;11726;50.122;8.832;2022-11-20T14:15:24;5.40;99.90
23114;DHT22;11726;50.122;8.832;2022-11-20T14:17:51;5.40;99.90
23114;DHT22;11726;50.122;8.832;2022-11-20T14:20:18;5.40;99.90
23114;DHT22;11726;50.122;8.832;2022-11-20T14:22:50;5.40;99.90
23114;DHT22;11726;50.122;8.832;2022-11-20T14:25:25;5.40;99.90
23114;DHT22;11726;50.122;8.832;2022-11-20T14:31:00;5.50;99.90
23114;DHT22;11726;50.122;8.832;2022-11-20T14:33:26;5.50;99.90
23114;DHT22;11726;50.122;8.832;2022-11-20T14:35:54;5.50;99.90
23114;DHT22;11726;50.122;8.832;2022-11-20T14:38:24;5.50;99.90
23114;DHT22;11726;50.122;8.832;2022-11-20T14:40:51;5.50;99.90
23114;DHT22;11726;50.122;8.832;2022-11-20T14:48:23;5.50;99.90
23114;DHT22;11726;50.122;8.832;2022-11-20T14:50:52;5.40;99.90
23114;DHT22;11726;50.122;8.832;2022-11-20T14:53:22;5.50;99.90
23114;DHT22;11726;50.122;8.832;2022-11-20T14:55:58;5.50;99.90
23114;DHT22;11726;50.122;8.832;2022-11-20T14:58:26;5.50;99.90
23114;DHT22;11726;50.122;8.832;2022-11-20T15:01:04;5.40;99.90
23114;DHT22;11726;50.122;8.832;2022-11-20T15:03:38;5.50;99.90
23114;DHT22;11726;50.122;8.832;2022-11-20T15:06:06;5.50;99.90
23114;DHT22;11726;50.122;8.832;2022-11-20T15:08:34;5.40;99.90
23114;DHT22;11726;50.122;8.832;2022-11-20T15:11:01;5.40;99.90
23114;DHT22;11726;50.122;8.832;2022-11-20T15:13:32;5.50;99.90
23114;DHT22;11726;50.122;8.832;2022-11-20T15:16:00;5.50;99.90
23114;DHT22;11726;50.122;8.832;2022-11-20T15:20:55;5.40;99.90
23114;DHT22;11726;50.122;8.832;2022-11-20T15:23:22;5.50;99.90
23114;DHT22;11726;50.122;8.832;2022-11-20T15:25:49;5.40;99.90
23114;DHT22;11726;50.122;8.832;2022-11-20T15:28:27;5.50;99.90
23114;DHT22;11726;50.122;8.832;2022-11-20T15:30:55;5.40;99.90
23114;DHT22;11726;50.122;8.832;2022-11-20T15:33:23;5.40;99.90
23114;DHT22;11726;50.122;8.832;2022-11-20T15:35:49;5.40;99.90
23114;DHT22;11726;50.122;8.832;2022-11-20T15:38:16;5.40;99.90
23114;DHT22;11726;50.122;8.832;2022-11-20T15:40:43;5.40;99.90
23114;DHT22;11726;50.122;8.832;2022-11-20T15:43:10;5.30;99.90
23114;DHT22;11726;50.122;8.832;2022-11-20T15:45:43;5.30;99.90
23114;DHT22;11726;50.122;8.832;2022-11-20T15:48:12;5.40;99.90
23114;DHT22;11726;50.122;8.832;2022-11-20T15:50:52;5.40;99.90
23114;DHT22;11726;50.122;8.832;2022-11-20T15:53:29;5.30;99.90
23114;DHT22;11726;50.122;8.832;2022-11-20T15:55:55;5.30;99.90
23114;DHT22;11726;50.122;8.832;2022-11-20T15:58:22;5.40;99.90
23114;DHT22;11726;50.122;8.832;2022-11-20T16:00:50;5.30;99.90
23114;DHT22;11726;50.122;8.832;2022-11-20T16:03:17;5.30;99.90
23114;DHT22;11726;50.122;8.832;2022-11-20T16:05:44;5.30;99.90
23114;DHT22;11726;50.122;8.832;2022-11-20T16:08:11;5.40;99.90
23114;DHT22;11726;50.122;8.832;2022-11-20T16:10:38;5.40;99.90
23114;DHT22;11726;50.122;8.832;2022-11-20T16:13:05;5.40;99.90
23114;DHT22;11726;50.122;8.832;2022-11-20T16:15:56;5.40;99.90
23114;DHT22;11726;50.122;8.832;2022-11-20T16:18:23;5.40;99.90
23114;DHT22;11726;50.122;8.832;2022-11-20T16:20:51;5.40;99.90
23114;DHT22;11726;50.122;8.832;2022-11-20T16:23:19;5.30;99.90
23114;DHT22;11726;50.122;8.832;2022-11-20T16:25:46;5.40;99.90
23114;DHT22;11726;50.122;8.832;2022-11-20T16:28:13;5.40;99.90
23114;DHT22;11726;50.122;8.832;2022-11-20T16:30:44;5.40;99.90
23114;DHT22;11726;50.122;8.832;2022-11-20T16:33:12;5.40;99.90
23114;DHT22;11726;50.122;8.832;2022-11-20T16:35:39;5.40;99.90
23114;DHT22;11726;50.122;8.832;2022-11-20T16:38:06;5.30;99.90
23114;DHT22;11726;50.122;8.832;2022-11-20T16:40:33;5.40;99.90
23114;DHT22;11726;50.122;8.832;2022-11-20T16:43:12;5.30;99.90
23114;DHT22;11726;50.122;8.832;2022-11-20T16:45:42;5.30;99.90
23114;DHT22;11726;50.122;8.832;2022-11-20T16:48:13;5.30;99.90
23114;DHT22;11726;50.122;8.832;2022-11-20T16:50:44;5.30;99.90
23114;DHT22;11726;50.122;8.832;2022-11-20T16:53:11;5.20;99.90
23114;DHT22;11726;50.122;8.832;2022-11-20T16:55:38;5.30;99.90
23114;DHT22;11726;50.122;8.832;2022-11-20T16:58:08;5.30;99.90
23114;DHT22;11726;50.122;8.832;2022-11-20T17:00:35;5.20;99.90
23114;DHT22;11726;50.122;8.832;2022-11-20T17:03:03;5.20;99.90
23114;DHT22;11726;50.122;8.832;2022-11-20T17:05:30;5.20;99.90
23114;DHT22;11726;50.122;8.832;2022-11-20T17:07:57;5.20;99.90
23114;DHT22;11726;50.122;8.832;2022-11-20T17:10:24;5.20;99.90
23114;DHT22;11726;50.122;8.832;2022-11-20T17:12:51;5.20;99.90